createdAt,value
2022-09-10T00:01:18.331Z,1.30
2022-09-10T00:04:20.037Z,1.42
2022-09-10T00:07:21.745Z,0.55
2022-09-10T00:10:23.963Z,0.30
2022-09-10T00:13:25.672Z,1.33
2022-09-10T00:16:28.798Z,0.50
2022-09-10T00:19:31.336Z,1.25
2022-09-10T00:22:34.324Z,0.73
2022-09-10T00:25:36.055Z,0.80
2022-09-10T00:28:38.507Z,0.40
2022-09-10T00:31:40.892Z,0.90
2022-09-10T00:34:42.689Z,0.40
2022-09-10T00:37:44.417Z,0.50
2022-09-10T00:40:46.765Z,0.55
2022-09-10T00:43:50.492Z,0.50
2022-09-10T00:46:54.377Z,1.17
2022-09-10T00:50:05.453Z,0.35
2022-09-10T00:53:11.100Z,0.75
2022-09-10T00:56:14.293Z,0.30
2022-09-10T00:59:20.226Z,0.50
2022-09-10T01:02:22.091Z,1.25
2022-09-10T01:05:26.737Z,0.57
2022-09-10T01:08:28.653Z,0.40
2022-09-10T01:12:04.931Z,1.17
2022-09-10T01:15:40.906Z,0.47
2022-09-10T01:19:03.302Z,0.63
2022-09-10T01:22:34.855Z,0.30
2022-09-10T01:26:12.651Z,0.45
2022-09-10T01:29:23.730Z,0.60
2022-09-10T01:32:34.973Z,0.88
2022-09-10T01:35:46.555Z,0.50
2022-09-10T01:38:50.778Z,0.77
2022-09-10T01:41:54.481Z,0.60
2022-09-10T01:45:01.062Z,0.60
2022-09-10T01:48:15.106Z,0.52
2022-09-10T01:51:49.026Z,0.40
2022-09-10T01:54:56.952Z,1.13
2022-09-10T01:58:24.148Z,0.32
2022-09-10T02:01:47.330Z,0.70
2022-09-10T02:04:51.463Z,2.05
2022-09-10T02:07:58.470Z,0.30
2022-09-10T02:11:06.319Z,0.68
2022-09-10T02:14:14.053Z,0.50
2022-09-10T02:17:38.391Z,0.43
2022-09-10T02:20:41.387Z,0.55
2022-09-10T02:23:46.344Z,0.30
2022-09-10T02:26:49.180Z,0.70
2022-09-10T02:29:50.879Z,0.43
2022-09-10T02:32:52.639Z,6.95
2022-09-10T02:35:55.602Z,0.93
2022-09-10T02:39:03.663Z,0.47
2022-09-10T02:42:06.712Z,0.40
2022-09-10T02:45:08.971Z,0.80
2022-09-10T02:48:11.826Z,0.77
2022-09-10T02:51:13.924Z,0.57
2022-09-10T02:54:16.074Z,1.10
2022-09-10T02:57:18.162Z,0.55
2022-09-10T03:00:21.205Z,0.77
2022-09-10T03:03:23.274Z,0.65
2022-09-10T03:06:26.859Z,0.47
2022-09-10T03:09:28.892Z,0.50
2022-09-10T03:12:30.693Z,0.43
2022-09-10T03:15:32.491Z,1.05
2022-09-10T03:18:35.217Z,0.45
2022-09-10T03:21:37.083Z,0.55
2022-09-10T03:24:38.812Z,0.40
2022-09-10T03:27:41.122Z,0.57
2022-09-10T03:30:43.720Z,0.40
2022-09-10T03:33:46.257Z,0.70
2022-09-10T03:36:48.737Z,0.43
2022-09-10T03:39:50.522Z,0.55
2022-09-10T03:42:52.343Z,0.32
2022-09-10T03:45:54.307Z,0.40
2022-09-10T03:48:57.090Z,0.50
2022-09-10T03:52:00.774Z,0.40
2022-09-10T03:55:02.730Z,0.20
2022-09-10T03:58:06.152Z,0.40
2022-09-10T04:01:08.026Z,0.73
2022-09-10T04:04:14.831Z,0.70
2022-09-10T04:07:16.561Z,0.55
2022-09-10T04:10:20.300Z,0.60
2022-09-10T04:13:23.026Z,0.45
2022-09-10T04:16:24.968Z,1.27
2022-09-10T04:19:27.982Z,0.70
2022-09-10T04:22:30.230Z,0.93
2022-09-10T04:25:33.928Z,0.30
2022-09-10T04:28:36.058Z,0.95
2022-09-10T04:31:38.838Z,0.38
2022-09-10T04:34:46.480Z,0.20
2022-09-10T04:37:48.601Z,0.57
2022-09-10T04:40:50.722Z,0.30
2022-09-10T04:43:52.462Z,0.40
2022-09-10T04:46:54.412Z,0.32
2022-09-10T04:49:56.187Z,0.63
2022-09-10T04:52:59.005Z,0.50
2022-09-10T04:56:01.592Z,0.30
2022-09-10T04:59:04.869Z,0.40
2022-09-10T05:02:10.420Z,0.63
2022-09-10T05:05:12.268Z,1.00
2022-09-10T05:08:14.513Z,0.45
2022-09-10T05:11:21.926Z,1.17
2022-09-10T05:14:25.291Z,0.63
2022-09-10T05:17:27.258Z,0.82
2022-09-10T05:20:29.119Z,0.52
2022-09-10T05:23:32.110Z,0.50
2022-09-10T05:26:35.800Z,0.40
2022-09-10T05:29:37.695Z,0.40
2022-09-10T05:32:40.116Z,0.28
2022-09-10T05:35:42.186Z,0.35
2022-09-10T05:38:45.785Z,0.40
2022-09-10T05:41:47.913Z,0.40
2022-09-10T05:44:50.575Z,0.40
2022-09-10T05:47:52.959Z,0.30
2022-09-10T05:50:57.722Z,0.93
2022-09-10T05:54:00.154Z,0.50
2022-09-10T05:57:03.383Z,1.40
2022-09-10T06:00:09.882Z,0.30
2022-09-10T06:03:17.432Z,0.25
2022-09-10T06:06:22.512Z,0.20
2022-09-10T06:09:32.623Z,0.25
2022-09-10T06:12:40.139Z,0.40
2022-09-10T06:15:42.534Z,0.40
2022-09-10T06:18:45.184Z,0.45
2022-09-10T06:21:52.272Z,0.43
2022-09-10T06:24:55.365Z,0.60
2022-09-10T06:27:59.112Z,0.80
2022-09-10T06:31:04.330Z,1.38
2022-09-10T06:34:07.474Z,0.43
2022-09-10T06:37:09.763Z,2.00
2022-09-10T06:40:13.237Z,0.30
2022-09-10T06:43:17.127Z,0.43
2022-09-10T06:47:17.836Z,0.30
2022-09-10T06:50:01.818Z,0.50
2022-09-10T06:53:05.913Z,0.52
2022-09-10T06:56:10.766Z,2.70
2022-09-10T06:59:14.645Z,0.50
2022-09-10T07:02:22.037Z,0.40
2022-09-10T07:05:28.601Z,0.30
2022-09-10T07:08:31.165Z,0.50
2022-09-10T07:11:39.243Z,0.30
2022-09-10T07:14:44.157Z,0.43
2022-09-10T07:17:46.874Z,0.30
2022-09-10T07:20:48.614Z,0.82
2022-09-10T07:23:55.642Z,0.40
2022-09-10T07:26:57.649Z,0.40
2022-09-10T07:29:59.577Z,0.82
2022-09-10T07:33:01.379Z,0.75
2022-09-10T07:36:06.385Z,0.47
2022-09-10T07:39:10.329Z,0.47
2022-09-10T07:42:14.556Z,0.38
2022-09-10T07:45:16.893Z,1.00
2022-09-10T07:48:19.605Z,2.10
2022-09-10T07:51:21.641Z,0.63
2022-09-10T07:54:24.743Z,2.35
2022-09-10T07:57:31.462Z,0.77
2022-09-10T08:00:34.632Z,0.75
2022-09-10T08:03:41.645Z,1.20
2022-09-10T08:06:45.746Z,1.33
2022-09-10T08:09:48.529Z,4.03
2022-09-10T08:12:52.837Z,4.40
2022-09-10T08:15:57.730Z,3.22
2022-09-10T08:19:00.509Z,5.22
2022-09-10T08:22:07.426Z,4.72
2022-09-10T08:25:16.459Z,4.78
2022-09-10T08:28:25.705Z,5.13
2022-09-10T08:31:29.090Z,4.05
2022-09-10T08:34:40.474Z,10.15
2022-09-10T08:37:44.242Z,5.68
2022-09-10T08:40:50.043Z,5.38
2022-09-10T08:43:59.968Z,3.38
2022-09-10T08:47:09.898Z,2.85
2022-09-10T08:50:25.290Z,6.38
2022-09-10T08:53:41.931Z,2.80
2022-09-10T08:56:45.141Z,3.28
2022-09-10T08:59:50.112Z,3.35
2022-09-10T09:03:07.004Z,4.97
2022-09-10T09:09:32.746Z,4.18
2022-09-10T09:12:47.715Z,7.35
2022-09-10T09:15:52.386Z,3.30
2022-09-10T09:19:18.132Z,4.53
2022-09-10T09:22:53.830Z,3.95
2022-09-10T09:26:12.829Z,4.30
2022-09-10T09:29:44.751Z,1.85
2022-09-10T09:32:49.610Z,2.92
2022-09-10T09:36:00.767Z,5.95
2022-09-10T09:39:26.354Z,3.03
2022-09-10T09:42:31.323Z,3.25
2022-09-10T09:45:39.719Z,2.72
2022-09-10T09:48:42.406Z,2.92
2022-09-10T09:51:50.174Z,5.55
2022-09-10T09:55:14.190Z,7.72
2022-09-10T09:58:26.373Z,2.67
2022-09-10T10:01:28.836Z,1.27
2022-09-10T10:04:31.145Z,4.13
2022-09-10T10:07:36.398Z,1.45
2022-09-10T10:10:38.229Z,2.25
2022-09-10T10:13:45.260Z,3.30
2022-09-10T10:16:48.450Z,1.25
2022-09-10T10:19:58.955Z,1.60
2022-09-10T10:23:22.558Z,2.88
2022-09-10T10:26:30.324Z,2.08
2022-09-10T10:29:32.512Z,2.83
2022-09-10T10:32:42.805Z,2.20
2022-09-10T10:36:10.301Z,2.42
2022-09-10T10:39:50.644Z,3.73
2022-09-10T10:43:27.888Z,3.92
2022-09-10T10:47:06.955Z,2.15
2022-09-10T10:50:26.280Z,1.67
2022-09-10T10:53:35.962Z,2.50
2022-09-10T10:56:45.883Z,1.30
2022-09-10T11:00:01.159Z,1.45
2022-09-10T11:03:20.119Z,2.28
2022-09-10T11:06:26.400Z,3.83
2022-09-10T11:09:33.983Z,3.67
2022-09-10T11:12:49.288Z,7.13
2022-09-10T11:16:15.188Z,6.78
2022-09-10T11:19:22.862Z,7.80
2022-09-10T11:22:31.058Z,6.60
2022-09-10T11:25:39.986Z,8.80
2022-09-10T11:28:59.238Z,12.95
2022-09-10T11:32:04.622Z,9.93
2022-09-10T11:35:29.902Z,11.48
2022-09-10T11:38:40.540Z,13.50
2022-09-10T11:41:45.823Z,23.15
2022-09-10T11:45:04.841Z,14.48
2022-09-10T11:48:41.520Z,16.65
2022-09-10T11:51:44.870Z,16.27
2022-09-10T11:54:47.446Z,16.23
2022-09-10T11:58:27.352Z,16.33
2022-09-10T12:01:57.190Z,13.75
2022-09-10T12:05:31.186Z,13.68
2022-09-10T12:08:49.805Z,13.43
2022-09-10T12:12:09.045Z,10.73
2022-09-10T12:15:27.037Z,12.40
2022-09-10T12:18:43.064Z,14.18
2022-09-10T12:22:03.999Z,11.63
2022-09-10T12:25:34.219Z,13.05
2022-09-10T12:28:42.430Z,11.45
2022-09-10T12:32:15.354Z,12.45
2022-09-10T12:35:35.342Z,11.38
2022-09-10T12:38:49.817Z,11.20
2022-09-10T12:41:51.465Z,10.32
2022-09-10T12:44:54.063Z,10.57
2022-09-10T12:47:55.933Z,9.25
2022-09-10T12:51:00.862Z,9.57
2022-09-10T12:54:29.575Z,10.25
2022-09-10T12:57:39.626Z,12.52
2022-09-10T13:00:56.429Z,9.88
2022-09-10T13:04:02.533Z,9.02
2022-09-10T13:07:22.265Z,8.88
2022-09-10T13:10:27.383Z,7.65
2022-09-10T13:13:36.271Z,10.10
2022-09-10T13:16:40.747Z,7.88
2022-09-10T13:19:42.927Z,8.32
2022-09-10T13:23:11.157Z,7.82
2022-09-10T13:26:37.365Z,9.35
2022-09-10T13:29:43.361Z,7.80
2022-09-10T13:33:05.116Z,6.70
2022-09-10T13:36:26.042Z,9.02
2022-09-10T13:39:27.746Z,7.28
2022-09-10T13:43:15.068Z,7.30
2022-09-10T13:46:30.288Z,7.22
2022-09-10T13:50:03.295Z,6.93
2022-09-10T13:53:10.661Z,6.72
2022-09-10T13:56:27.084Z,7.13
2022-09-10T13:59:31.839Z,6.88
2022-09-10T14:03:00.463Z,8.70
2022-09-10T14:06:16.701Z,6.55
2022-09-10T14:09:19.716Z,9.23
2022-09-10T14:12:26.402Z,6.30
2022-09-10T14:15:36.271Z,6.35
2022-09-10T14:18:55.564Z,7.28
2022-09-10T14:21:57.521Z,6.05
2022-09-10T14:25:02.573Z,8.68
2022-09-10T14:28:16.341Z,10.48
2022-09-10T14:31:27.027Z,10.93
2022-09-10T14:34:34.796Z,10.38
2022-09-10T14:37:38.041Z,11.32
2022-09-10T14:40:39.804Z,16.75
2022-09-10T14:43:41.643Z,21.23
2022-09-10T14:46:55.029Z,27.98
2022-09-10T14:50:36.757Z,28.45
2022-09-10T14:53:39.547Z,24.48
2022-09-10T14:56:44.306Z,29.75
2022-09-10T14:59:46.422Z,28.77
2022-09-10T15:02:50.555Z,26.58
2022-09-10T15:05:52.265Z,24.30
2022-09-10T15:08:56.184Z,26.55
2022-09-10T15:12:06.198Z,31.33
2022-09-10T15:15:17.170Z,29.73
2022-09-10T15:18:19.510Z,28.98
2022-09-10T15:21:22.221Z,25.73
2022-09-10T15:24:24.719Z,27.65
2022-09-10T15:27:26.753Z,28.42
2022-09-10T15:30:28.530Z,29.63
2022-09-10T15:33:30.357Z,30.15
2022-09-10T15:36:33.049Z,25.48
2022-09-10T15:39:37.919Z,30.15
2022-09-10T15:42:39.698Z,32.45
2022-09-10T15:45:41.427Z,30.73
2022-09-10T15:48:45.025Z,27.17
2022-09-10T15:51:46.742Z,32.10
2022-09-10T15:54:48.450Z,31.63
2022-09-10T15:57:51.660Z,28.10
2022-09-10T16:00:53.410Z,28.48
2022-09-10T16:03:57.543Z,26.40
2022-09-10T16:06:59.258Z,33.33
2022-09-10T16:10:01.211Z,27.95
2022-09-10T16:13:03.082Z,31.60
2022-09-10T16:16:08.179Z,30.38
2022-09-10T16:19:12.894Z,28.25
2022-09-10T16:22:18.659Z,27.13
2022-09-10T16:25:23.328Z,25.08
2022-09-10T16:28:25.847Z,26.52
2022-09-10T16:31:36.296Z,34.30
2022-09-10T16:34:38.541Z,28.83
2022-09-10T16:37:40.611Z,26.27
2022-09-10T16:40:42.370Z,25.42
2022-09-10T16:43:44.346Z,24.55
2022-09-10T16:46:47.043Z,24.08
2022-09-10T16:49:48.751Z,29.80
2022-09-10T16:52:52.106Z,25.75
2022-09-10T16:56:01.155Z,28.77
2022-09-10T16:59:03.044Z,20.55
2022-09-10T17:02:05.329Z,23.42
2022-09-10T17:05:07.384Z,26.73
2022-09-10T17:08:09.085Z,23.05
2022-09-10T17:11:12.836Z,23.42
2022-09-10T17:14:14.579Z,20.52
2022-09-10T17:17:16.294Z,21.58
2022-09-10T17:20:19.369Z,25.25
2022-09-10T17:23:21.103Z,20.15
2022-09-10T17:26:24.284Z,20.92
2022-09-10T17:29:26.210Z,26.33
2022-09-10T17:32:27.914Z,22.73
2022-09-10T17:35:29.691Z,25.58
2022-09-10T17:38:33.897Z,26.23
2022-09-10T17:41:35.981Z,23.77
2022-09-10T17:44:37.670Z,23.83
2022-09-10T17:47:39.381Z,25.50
2022-09-10T17:50:46.360Z,25.90
2022-09-10T17:53:48.649Z,29.50
2022-09-10T17:56:50.383Z,20.73
2022-09-10T17:59:52.108Z,23.08
2022-09-10T18:02:53.890Z,22.52
2022-09-10T18:05:56.887Z,20.77
2022-09-10T18:09:00.402Z,20.80
2022-09-10T18:12:02.752Z,24.30
2022-09-10T18:15:05.003Z,20.95
2022-09-10T18:18:06.736Z,22.33
2022-09-10T18:21:13.886Z,22.70
2022-09-10T18:24:24.018Z,20.52
2022-09-10T18:27:26.276Z,20.08
2022-09-10T18:30:28.628Z,19.98
2022-09-10T18:33:38.281Z,21.77
2022-09-10T18:36:40.091Z,23.52
2022-09-10T18:39:42.024Z,16.75
2022-09-10T18:42:46.749Z,18.10
2022-09-10T18:45:48.623Z,24.38
2022-09-10T18:48:51.047Z,17.42
2022-09-10T18:51:55.090Z,19.42
2022-09-10T18:54:56.838Z,18.58
2022-09-10T18:57:58.593Z,19.15
2022-09-10T19:01:13.807Z,18.30
2022-09-10T19:04:18.651Z,17.13
2022-09-10T19:07:21.184Z,18.13
2022-09-10T19:10:22.879Z,17.42
2022-09-10T19:13:25.160Z,18.45
2022-09-10T19:16:30.180Z,18.10
2022-09-10T19:19:34.827Z,17.02
2022-09-10T19:22:36.845Z,16.73
2022-09-10T19:25:38.762Z,17.17
2022-09-10T19:28:40.633Z,15.93
2022-09-10T19:31:42.812Z,14.75
2022-09-10T19:34:44.613Z,13.23
2022-09-10T19:37:48.169Z,16.80
2022-09-10T19:40:50.251Z,13.90
2022-09-10T19:43:53.611Z,16.05
2022-09-10T19:46:55.353Z,13.57
2022-09-10T19:49:58.984Z,14.05
2022-09-10T19:53:00.670Z,14.65
2022-09-10T19:56:19.613Z,12.65
2022-09-10T19:59:22.644Z,14.68
2022-09-10T20:02:24.382Z,22.58
2022-09-10T20:05:26.982Z,12.40
2022-09-10T20:08:28.714Z,11.10
2022-09-10T20:11:32.908Z,14.75
2022-09-10T20:14:34.630Z,14.13
2022-09-10T20:17:36.355Z,12.98
2022-09-10T20:20:38.083Z,11.93
2022-09-10T20:23:45.067Z,13.25
2022-09-10T20:26:48.832Z,14.52
2022-09-10T20:29:50.795Z,11.88
2022-09-10T20:32:52.523Z,12.75
2022-09-10T20:35:54.226Z,11.13
2022-09-10T20:38:56.255Z,10.07
2022-09-10T20:41:58.474Z,12.68
2022-09-10T20:45:00.227Z,11.38
2022-09-10T20:48:02.702Z,10.75
2022-09-10T20:51:04.541Z,12.50
2022-09-10T20:54:08.319Z,10.30
2022-09-10T20:57:11.383Z,12.25
2022-09-10T21:00:13.772Z,11.80
2022-09-10T21:03:15.483Z,9.20
2022-09-10T21:06:19.450Z,9.45
2022-09-10T21:09:21.234Z,8.77
2022-09-10T21:12:22.968Z,11.00
2022-09-10T21:15:24.756Z,11.32
2022-09-10T21:18:26.597Z,7.88
2022-09-10T21:21:30.753Z,9.00
2022-09-10T21:24:32.467Z,10.60
2022-09-10T21:27:34.241Z,8.93
2022-09-10T21:30:35.949Z,11.00
2022-09-10T21:33:37.698Z,11.32
2022-09-10T21:36:41.136Z,10.88
2022-09-10T21:39:44.017Z,9.27
2022-09-10T21:42:45.736Z,11.88
2022-09-10T21:45:48.118Z,10.90
2022-09-10T21:48:50.710Z,8.25
2022-09-10T21:51:55.159Z,8.40
2022-09-10T21:54:59.486Z,6.80
2022-09-10T21:58:01.204Z,7.75
2022-09-10T22:01:08.333Z,9.55
2022-09-10T22:04:11.142Z,7.72
2022-09-10T22:07:14.123Z,7.32
2022-09-10T22:10:18.548Z,8.27
2022-09-10T22:13:20.851Z,8.55
2022-09-10T22:16:23.034Z,10.75
2022-09-10T22:19:25.787Z,7.72
2022-09-10T22:22:28.019Z,7.15
2022-09-10T22:25:30.150Z,7.68
2022-09-10T22:28:34.950Z,10.93
2022-09-10T22:31:36.903Z,6.65
2022-09-10T22:34:38.945Z,6.82
2022-09-10T22:37:40.646Z,8.55
2022-09-10T22:40:42.318Z,8.00
2022-09-10T22:43:44.004Z,7.80
2022-09-10T22:46:46.023Z,6.38
2022-09-10T22:49:47.757Z,6.63
2022-09-10T22:52:49.614Z,5.95
2022-09-10T22:55:51.441Z,8.25
2022-09-10T22:58:55.511Z,5.97
2022-09-10T23:01:57.311Z,6.85
2022-09-10T23:04:59.920Z,6.35
2022-09-10T23:08:01.825Z,6.20
2022-09-10T23:11:12.231Z,6.65
2022-09-10T23:14:17.663Z,9.63
2022-09-10T23:17:22.426Z,6.10
2022-09-10T23:20:24.964Z,7.10
2022-09-10T23:23:27.465Z,7.05
2022-09-10T23:26:29.723Z,5.80
2022-09-10T23:29:31.759Z,5.13
2022-09-10T23:32:33.468Z,6.25
2022-09-10T23:35:35.165Z,5.15
2022-09-10T23:38:38.251Z,6.25
2022-09-10T23:41:41.641Z,5.20
2022-09-10T23:44:44.602Z,5.70
2022-09-10T23:47:46.622Z,4.80
2022-09-10T23:50:50.385Z,3.90
2022-09-10T23:53:52.103Z,5.75
2022-09-10T23:56:53.807Z,6.10
2022-09-10T23:59:55.893Z,5.18
